sensor_id;sensor_type;location;lat;lon;timestamp;temperature;humidity
57030;DHT22;42920;45.306;20.448;2023-01-26T00:01:59;103.10;2227.20
57030;DHT22;42920;45.306;20.448;2023-01-26T00:04:24;103.10;2227.20
57030;DHT22;42920;45.306;20.448;2023-01-26T00:06:50;103.00;2227.20
57030;DHT22;42920;45.306;20.448;2023-01-26T00:09:15;103.00;2227.20
57030;DHT22;42920;45.306;20.448;2023-01-26T00:11:41;103.00;2227.20
57030;DHT22;42920;45.306;20.448;2023-01-26T00:14:07;102.90;2227.20
57030;DHT22;42920;45.306;20.448;2023-01-26T00:16:32;102.90;2227.20
57030;DHT22;42920;45.306;20.448;2023-01-26T00:18:58;102.90;2227.20
57030;DHT22;42920;45.306;20.448;2023-01-26T00:21:23;102.80;2227.20
57030;DHT22;42920;45.306;20.448;2023-01-26T00:23:49;102.70;2227.20
57030;DHT22;42920;45.306;20.448;2023-01-26T00:26:17;102.70;2227.20
57030;DHT22;42920;45.306;20.448;2023-01-26T00:28:44;102.70;2227.20
57030;DHT22;42920;45.306;20.448;2023-01-26T00:31:11;102.70;2227.20
57030;DHT22;42920;45.306;20.448;2023-01-26T00:33:37;102.60;2227.20
57030;DHT22;42920;45.306;20.448;2023-01-26T00:36:02;102.70;2227.20
57030;DHT22;42920;45.306;20.448;2023-01-26T00:38:28;102.60;2227.20
57030;DHT22;42920;45.306;20.448;2023-01-26T00:40:54;102.50;2227.20
57030;DHT22;42920;45.306;20.448;2023-01-26T00:43:19;102.50;2227.20
57030;DHT22;42920;45.306;20.448;2023-01-26T00:45:45;102.50;2227.20
57030;DHT22;42920;45.306;20.448;2023-01-26T00:48:11;102.40;2227.20
57030;DHT22;42920;45.306;20.448;2023-01-26T00:50:36;102.40;2227.20
57030;DHT22;42920;45.306;20.448;2023-01-26T00:53:02;102.40;2227.20
57030;DHT22;42920;45.306;20.448;2023-01-26T00:55:27;77.70;2227.20
57030;DHT22;42920;45.306;20.448;2023-01-26T00:58:03;77.70;2227.20
57030;DHT22;42920;45.306;20.448;2023-01-26T01:00:29;102.40;2227.20
57030;DHT22;42920;45.306;20.448;2023-01-26T01:02:55;77.70;2227.20
57030;DHT22;42920;45.306;20.448;2023-01-26T01:05:21;77.70;2227.20
57030;DHT22;42920;45.306;20.448;2023-01-26T01:07:47;77.70;2227.20
57030;DHT22;42920;45.306;20.448;2023-01-26T01:10:13;102.40;2227.20
57030;DHT22;42920;45.306;20.448;2023-01-26T01:12:38;77.70;2227.20
57030;DHT22;42920;45.306;20.448;2023-01-26T01:15:04;77.70;2227.20
57030;DHT22;42920;45.306;20.448;2023-01-26T01:17:30;102.40;2227.20
57030;DHT22;42920;45.306;20.448;2023-01-26T01:19:55;77.70;2227.20
57030;DHT22;42920;45.306;20.448;2023-01-26T01:22:21;77.70;2227.20
57030;DHT22;42920;45.306;20.448;2023-01-26T01:24:46;77.70;2227.20
57030;DHT22;42920;45.306;20.448;2023-01-26T01:27:12;77.70;2227.20
57030;DHT22;42920;45.306;20.448;2023-01-26T01:29:38;77.70;2227.20
57030;DHT22;42920;45.306;20.448;2023-01-26T01:32:03;77.70;2227.20
57030;DHT22;42920;45.306;20.448;2023-01-26T01:34:29;77.60;2227.20
57030;DHT22;42920;45.306;20.448;2023-01-26T01:36:54;77.60;2227.20
57030;DHT22;42920;45.306;20.448;2023-01-26T01:39:20;77.60;2227.20
57030;DHT22;42920;45.306;20.448;2023-01-26T01:41:46;77.70;2227.20
57030;DHT22;42920;45.306;20.448;2023-01-26T01:46:42;77.70;2227.20
57030;DHT22;42920;45.306;20.448;2023-01-26T01:49:15;77.70;2227.20
57030;DHT22;42920;45.306;20.448;2023-01-26T01:52:15;77.70;2227.20
57030;DHT22;42920;45.306;20.448;2023-01-26T01:54:35;77.70;2227.20
57030;DHT22;42920;45.306;20.448;2023-01-26T01:57:05;77.70;2227.20
57030;DHT22;42920;45.306;20.448;2023-01-26T01:59:43;77.70;2227.20
57030;DHT22;42920;45.306;20.448;2023-01-26T02:02:10;102.40;2227.20
57030;DHT22;42920;45.306;20.448;2023-01-26T02:04:35;77.70;2227.20
57030;DHT22;42920;45.306;20.448;2023-01-26T02:07:01;77.70;2227.20
57030;DHT22;42920;45.306;20.448;2023-01-26T02:09:32;77.70;2227.20
57030;DHT22;42920;45.306;20.448;2023-01-26T02:12:18;77.70;2227.20
57030;DHT22;42920;45.306;20.448;2023-01-26T02:14:44;77.60;2227.20
57030;DHT22;42920;45.306;20.448;2023-01-26T02:17:10;77.70;2227.20
57030;DHT22;42920;45.306;20.448;2023-01-26T02:22:07;77.70;2227.20
57030;DHT22;42920;45.306;20.448;2023-01-26T02:24:35;77.70;2227.20
57030;DHT22;42920;45.306;20.448;2023-01-26T02:27:02;77.70;2227.20
57030;DHT22;42920;45.306;20.448;2023-01-26T02:29:27;77.70;2227.20
57030;DHT22;42920;45.306;20.448;2023-01-26T02:31:53;77.70;2227.20
57030;DHT22;42920;45.306;20.448;2023-01-26T02:34:19;102.40;2227.20
57030;DHT22;42920;45.306;20.448;2023-01-26T02:36:44;77.70;2227.20
57030;DHT22;42920;45.306;20.448;2023-01-26T02:41:54;102.40;2227.20
57030;DHT22;42920;45.306;20.448;2023-01-26T02:44:38;102.40;2227.20
57030;DHT22;42920;45.306;20.448;2023-01-26T02:47:09;102.40;2227.20
57030;DHT22;42920;45.306;20.448;2023-01-26T02:49:35;102.40;2227.20
57030;DHT22;42920;45.306;20.448;2023-01-26T02:52:16;102.40;2227.20
57030;DHT22;42920;45.306;20.448;2023-01-26T02:54:41;102.40;2227.20
57030;DHT22;42920;45.306;20.448;2023-01-26T02:57:26;77.70;2227.20
57030;DHT22;42920;45.306;20.448;2023-01-26T02:59:51;102.40;2227.20
57030;DHT22;42920;45.306;20.448;2023-01-26T03:02:17;77.70;2227.20
57030;DHT22;42920;45.306;20.448;2023-01-26T03:04:43;77.70;2227.20
57030;DHT22;42920;45.306;20.448;2023-01-26T03:07:09;102.50;2227.20
57030;DHT22;42920;45.306;20.448;2023-01-26T03:09:35;102.50;2227.20
57030;DHT22;42920;45.306;20.448;2023-01-26T03:12:00;102.60;2227.20
57030;DHT22;42920;45.306;20.448;2023-01-26T03:14:26;102.60;2227.20
57030;DHT22;42920;45.306;20.448;2023-01-26T03:16:51;102.50;2227.20
57030;DHT22;42920;45.306;20.448;2023-01-26T03:19:17;102.60;2227.20
57030;DHT22;42920;45.306;20.448;2023-01-26T03:22:01;102.50;2227.20
57030;DHT22;42920;45.306;20.448;2023-01-26T03:24:45;102.50;2227.20
57030;DHT22;42920;45.306;20.448;2023-01-26T03:27:32;102.40;2227.20
57030;DHT22;42920;45.306;20.448;2023-01-26T03:29:59;102.50;2227.20
57030;DHT22;42920;45.306;20.448;2023-01-26T03:32:25;102.50;2227.20
57030;DHT22;42920;45.306;20.448;2023-01-26T03:34:50;102.50;2227.20
57030;DHT22;42920;45.306;20.448;2023-01-26T03:37:16;102.50;2227.20
57030;DHT22;42920;45.306;20.448;2023-01-26T03:39:49;102.60;2227.20
57030;DHT22;42920;45.306;20.448;2023-01-26T03:42:34;102.60;2227.20
57030;DHT22;42920;45.306;20.448;2023-01-26T03:45:18;102.60;2227.20
57030;DHT22;42920;45.306;20.448;2023-01-26T03:48:03;102.60;2227.20
57030;DHT22;42920;45.306;20.448;2023-01-26T03:50:48;102.60;2227.20
57030;DHT22;42920;45.306;20.448;2023-01-26T03:53:32;102.70;2227.20
57030;DHT22;42920;45.306;20.448;2023-01-26T03:56:16;102.70;2227.20
57030;DHT22;42920;45.306;20.448;2023-01-26T03:59:00;102.60;2227.20
57030;DHT22;42920;45.306;20.448;2023-01-26T04:01:36;102.50;2227.20
57030;DHT22;42920;45.306;20.448;2023-01-26T04:04:02;102.60;2227.20
57030;DHT22;42920;45.306;20.448;2023-01-26T04:06:47;102.60;2227.20
57030;DHT22;42920;45.306;20.448;2023-01-26T04:09:31;102.50;2227.20
57030;DHT22;42920;45.306;20.448;2023-01-26T04:11:57;102.60;2227.20
57030;DHT22;42920;45.306;20.448;2023-01-26T04:14:23;102.80;2227.20
57030;DHT22;42920;45.306;20.448;2023-01-26T04:17:07;102.60;2227.20
57030;DHT22;42920;45.306;20.448;2023-01-26T04:19:51;102.80;2227.20
57030;DHT22;42920;45.306;20.448;2023-01-26T04:22:39;102.80;2227.20
57030;DHT22;42920;45.306;20.448;2023-01-26T04:25:10;102.90;2227.20
57030;DHT22;42920;45.306;20.448;2023-01-26T04:27:36;102.80;2227.20
57030;DHT22;42920;45.306;20.448;2023-01-26T04:30:02;102.70;2227.20
57030;DHT22;42920;45.306;20.448;2023-01-26T04:32:28;102.80;2227.20
57030;DHT22;42920;45.306;20.448;2023-01-26T04:34:53;102.80;2227.20
57030;DHT22;42920;45.306;20.448;2023-01-26T04:37:19;102.80;2227.20
57030;DHT22;42920;45.306;20.448;2023-01-26T04:39:45;102.80;2227.20
57030;DHT22;42920;45.306;20.448;2023-01-26T04:42:10;102.90;2227.20
57030;DHT22;42920;45.306;20.448;2023-01-26T04:44:36;102.90;2227.20
57030;DHT22;42920;45.306;20.448;2023-01-26T04:47:01;102.80;2227.20
57030;DHT22;42920;45.306;20.448;2023-01-26T04:49:27;102.80;2227.20
57030;DHT22;42920;45.306;20.448;2023-01-26T04:51:52;102.80;2227.20
57030;DHT22;42920;45.306;20.448;2023-01-26T04:54:18;102.80;2227.20
57030;DHT22;42920;45.306;20.448;2023-01-26T04:56:44;102.80;2227.20
57030;DHT22;42920;45.306;20.448;2023-01-26T04:59:09;102.90;2227.20
57030;DHT22;42920;45.306;20.448;2023-01-26T05:01:35;102.90;2227.20
57030;DHT22;42920;45.306;20.448;2023-01-26T05:04:01;102.90;2227.20
57030;DHT22;42920;45.306;20.448;2023-01-26T05:06:27;102.90;2227.20
57030;DHT22;42920;45.306;20.448;2023-01-26T05:08:53;102.90;2227.20
57030;DHT22;42920;45.306;20.448;2023-01-26T05:11:19;102.90;2227.20
57030;DHT22;42920;45.306;20.448;2023-01-26T05:13:44;103.00;2227.20
57030;DHT22;42920;45.306;20.448;2023-01-26T05:16:11;102.90;2227.20
57030;DHT22;42920;45.306;20.448;2023-01-26T05:18:41;102.90;2227.20
57030;DHT22;42920;45.306;20.448;2023-01-26T05:21:07;103.00;2227.20
57030;DHT22;42920;45.306;20.448;2023-01-26T05:23:33;103.00;2227.20
57030;DHT22;42920;45.306;20.448;2023-01-26T05:25:59;103.00;2227.20
57030;DHT22;42920;45.306;20.448;2023-01-26T05:28:24;102.90;2227.20
57030;DHT22;42920;45.306;20.448;2023-01-26T05:30:50;103.00;2227.20
57030;DHT22;42920;45.306;20.448;2023-01-26T05:33:15;103.10;2227.20
57030;DHT22;42920;45.306;20.448;2023-01-26T05:35:48;103.10;2227.20
57030;DHT22;42920;45.306;20.448;2023-01-26T05:38:14;103.10;2227.20
57030;DHT22;42920;45.306;20.448;2023-01-26T05:40:40;103.00;2227.20
57030;DHT22;42920;45.306;20.448;2023-01-26T05:43:05;103.00;2227.20
57030;DHT22;42920;45.306;20.448;2023-01-26T05:45:32;103.00;2227.20
57030;DHT22;42920;45.306;20.448;2023-01-26T05:47:58;102.60;2227.20
57030;DHT22;42920;45.306;20.448;2023-01-26T05:50:24;102.70;2227.20
57030;DHT22;42920;45.306;20.448;2023-01-26T05:52:50;102.70;2227.20
57030;DHT22;42920;45.306;20.448;2023-01-26T05:55:15;102.60;2227.20
57030;DHT22;42920;45.306;20.448;2023-01-26T05:57:41;102.80;2227.20
57030;DHT22;42920;45.306;20.448;2023-01-26T06:00:07;102.80;2227.20
57030;DHT22;42920;45.306;20.448;2023-01-26T06:02:33;102.80;2227.20
57030;DHT22;42920;45.306;20.448;2023-01-26T06:04:58;102.80;2227.20
57030;DHT22;42920;45.306;20.448;2023-01-26T06:07:24;102.80;2227.20
57030;DHT22;42920;45.306;20.448;2023-01-26T06:09:51;102.70;2227.20
57030;DHT22;42920;45.306;20.448;2023-01-26T06:12:17;102.70;2227.20
57030;DHT22;42920;45.306;20.448;2023-01-26T06:14:43;102.70;2227.20
57030;DHT22;42920;45.306;20.448;2023-01-26T06:17:09;102.60;2227.20
57030;DHT22;42920;45.306;20.448;2023-01-26T06:19:34;102.70;2227.20
57030;DHT22;42920;45.306;20.448;2023-01-26T06:22:02;102.60;2227.20
57030;DHT22;42920;45.306;20.448;2023-01-26T06:24:28;102.50;2227.20
57030;DHT22;42920;45.306;20.448;2023-01-26T06:26:53;102.50;2227.20
57030;DHT22;42920;45.306;20.448;2023-01-26T06:29:19;102.50;2227.20
57030;DHT22;42920;45.306;20.448;2023-01-26T06:31:44;102.50;2227.20
57030;DHT22;42920;45.306;20.448;2023-01-26T06:34:10;102.40;2227.20
57030;DHT22;42920;45.306;20.448;2023-01-26T06:36:36;77.70;2227.20
57030;DHT22;42920;45.306;20.448;2023-01-26T06:39:02;77.70;2227.20
57030;DHT22;42920;45.306;20.448;2023-01-26T06:41:27;102.40;2227.20
57030;DHT22;42920;45.306;20.448;2023-01-26T06:43:53;102.40;2227.20
57030;DHT22;42920;45.306;20.448;2023-01-26T06:46:19;102.40;2227.20
57030;DHT22;42920;45.306;20.448;2023-01-26T06:48:44;77.70;2227.20
57030;DHT22;42920;45.306;20.448;2023-01-26T06:53:42;102.50;2227.20
57030;DHT22;42920;45.306;20.448;2023-01-26T06:56:08;102.50;2227.20
57030;DHT22;42920;45.306;20.448;2023-01-26T06:58:34;102.60;2227.20
57030;DHT22;42920;45.306;20.448;2023-01-26T07:00:59;102.70;2227.20
57030;DHT22;42920;45.306;20.448;2023-01-26T07:03:25;102.90;2227.20
57030;DHT22;42920;45.306;20.448;2023-01-26T07:05:52;102.90;2227.20
57030;DHT22;42920;45.306;20.448;2023-01-26T07:08:17;102.90;2227.20
57030;DHT22;42920;45.306;20.448;2023-01-26T07:10:43;103.00;2227.20
57030;DHT22;42920;45.306;20.448;2023-01-26T07:13:09;102.90;2227.20
57030;DHT22;42920;45.306;20.448;2023-01-26T07:15:34;102.90;2227.20
57030;DHT22;42920;45.306;20.448;2023-01-26T07:18:00;102.80;2227.20
57030;DHT22;42920;45.306;20.448;2023-01-26T07:20:26;103.00;2227.20
57030;DHT22;42920;45.306;20.448;2023-01-26T07:22:51;103.00;2227.20
57030;DHT22;42920;45.306;20.448;2023-01-26T07:25:17;103.10;2227.20
57030;DHT22;42920;45.306;20.448;2023-01-26T07:27:43;103.10;2227.20
57030;DHT22;42920;45.306;20.448;2023-01-26T07:30:09;103.20;2227.20
57030;DHT22;42920;45.306;20.448;2023-01-26T07:32:34;103.20;2227.20
57030;DHT22;42920;45.306;20.448;2023-01-26T07:35:00;103.30;2227.20
57030;DHT22;42920;45.306;20.448;2023-01-26T07:37:26;103.30;2227.20
57030;DHT22;42920;45.306;20.448;2023-01-26T07:39:52;128.00;2252.80
57030;DHT22;42920;45.306;20.448;2023-01-26T07:42:18;128.00;2252.80
57030;DHT22;42920;45.306;20.448;2023-01-26T07:44:43;103.30;2227.20
57030;DHT22;42920;45.306;20.448;2023-01-26T07:47:09;128.00;2252.80
57030;DHT22;42920;45.306;20.448;2023-01-26T07:49:34;128.00;2252.80
57030;DHT22;42920;45.306;20.448;2023-01-26T07:52:00;128.00;2252.80
57030;DHT22;42920;45.306;20.448;2023-01-26T07:54:25;128.00;2252.80
57030;DHT22;42920;45.306;20.448;2023-01-26T07:56:51;128.00;2252.80
57030;DHT22;42920;45.306;20.448;2023-01-26T07:59:19;103.30;2227.20
57030;DHT22;42920;45.306;20.448;2023-01-26T08:01:45;128.00;2252.80
57030;DHT22;42920;45.306;20.448;2023-01-26T08:04:10;128.00;2252.80
57030;DHT22;42920;45.306;20.448;2023-01-26T08:06:36;128.10;2252.80
57030;DHT22;42920;45.306;20.448;2023-01-26T08:09:02;128.20;2252.80
57030;DHT22;42920;45.306;20.448;2023-01-26T08:11:28;128.10;2252.80
57030;DHT22;42920;45.306;20.448;2023-01-26T08:13:54;128.10;2252.80
57030;DHT22;42920;45.306;20.448;2023-01-26T08:16:19;103.30;2227.20
57030;DHT22;42920;45.306;20.448;2023-01-26T08:18:45;103.30;2227.20
57030;DHT22;42920;45.306;20.448;2023-01-26T08:21:11;103.20;2227.20
57030;DHT22;42920;45.306;20.448;2023-01-26T08:23:37;103.20;2227.20
57030;DHT22;42920;45.306;20.448;2023-01-26T08:26:03;103.10;2227.20
57030;DHT22;42920;45.306;20.448;2023-01-26T08:28:30;103.10;2227.20
57030;DHT22;42920;45.306;20.448;2023-01-26T08:30:55;103.00;2227.20
57030;DHT22;42920;45.306;20.448;2023-01-26T08:33:22;102.90;2227.20
57030;DHT22;42920;45.306;20.448;2023-01-26T08:35:47;102.80;2227.20
57030;DHT22;42920;45.306;20.448;2023-01-26T08:38:13;103.00;2227.20
57030;DHT22;42920;45.306;20.448;2023-01-26T08:40:39;103.10;2227.20
57030;DHT22;42920;45.306;20.448;2023-01-26T08:43:04;103.00;2227.20
57030;DHT22;42920;45.306;20.448;2023-01-26T08:45:30;102.90;2227.20
57030;DHT22;42920;45.306;20.448;2023-01-26T08:47:56;103.00;2227.20
57030;DHT22;42920;45.306;20.448;2023-01-26T08:50:23;103.00;2227.20
57030;DHT22;42920;45.306;20.448;2023-01-26T08:52:49;103.00;2227.20
57030;DHT22;42920;45.306;20.448;2023-01-26T08:55:15;103.10;2227.20
57030;DHT22;42920;45.306;20.448;2023-01-26T08:57:40;103.00;2227.20
57030;DHT22;42920;45.306;20.448;2023-01-26T09:00:06;103.00;2227.20
57030;DHT22;42920;45.306;20.448;2023-01-26T09:02:32;103.20;2227.20
57030;DHT22;42920;45.306;20.448;2023-01-26T09:04:57;103.00;2227.20
57030;DHT22;42920;45.306;20.448;2023-01-26T09:07:23;103.10;2227.20
57030;DHT22;42920;45.306;20.448;2023-01-26T09:09:49;103.10;2227.20
57030;DHT22;42920;45.306;20.448;2023-01-26T09:12:14;103.00;2227.20
57030;DHT22;42920;45.306;20.448;2023-01-26T09:14:40;103.00;2227.20
57030;DHT22;42920;45.306;20.448;2023-01-26T09:17:06;102.90;2227.20
57030;DHT22;42920;45.306;20.448;2023-01-26T09:19:31;102.80;2227.20
57030;DHT22;42920;45.306;20.448;2023-01-26T09:21:57;102.80;2227.20
57030;DHT22;42920;45.306;20.448;2023-01-26T09:24:22;102.80;2227.20
57030;DHT22;42920;45.306;20.448;2023-01-26T09:26:48;102.90;2227.20
57030;DHT22;42920;45.306;20.448;2023-01-26T09:29:14;102.80;2227.20
57030;DHT22;42920;45.306;20.448;2023-01-26T09:31:40;102.80;2227.20
57030;DHT22;42920;45.306;20.448;2023-01-26T09:34:05;102.80;2227.20
57030;DHT22;42920;45.306;20.448;2023-01-26T09:36:31;102.90;2227.20
57030;DHT22;42920;45.306;20.448;2023-01-26T09:38:57;102.80;2227.20
57030;DHT22;42920;45.306;20.448;2023-01-26T09:44:04;102.80;2227.20
57030;DHT22;42920;45.306;20.448;2023-01-26T09:51:34;102.80;2227.20
57030;DHT22;42920;45.306;20.448;2023-01-26T09:54:02;102.80;2227.20
57030;DHT22;42920;45.306;20.448;2023-01-26T09:56:29;102.70;2227.20
57030;DHT22;42920;45.306;20.448;2023-01-26T09:58:58;102.70;2227.20
57030;DHT22;42920;45.306;20.448;2023-01-26T10:04:13;102.80;2227.20
57030;DHT22;42920;45.306;20.448;2023-01-26T10:06:42;102.70;2227.20
57030;DHT22;42920;45.306;20.448;2023-01-26T10:11:47;102.80;2227.20
57030;DHT22;42920;45.306;20.448;2023-01-26T10:14:22;102.80;2227.20
57030;DHT22;42920;45.306;20.448;2023-01-26T10:16:50;102.70;2227.20
57030;DHT22;42920;45.306;20.448;2023-01-26T10:19:19;102.80;2227.20
57030;DHT22;42920;45.306;20.448;2023-01-26T10:21:48;102.80;2227.20
57030;DHT22;42920;45.306;20.448;2023-01-26T10:24:14;102.90;2227.20
57030;DHT22;42920;45.306;20.448;2023-01-26T10:26:42;102.80;2227.20
57030;DHT22;42920;45.306;20.448;2023-01-26T10:29:10;102.80;2227.20
57030;DHT22;42920;45.306;20.448;2023-01-26T10:31:37;102.90;2227.20
57030;DHT22;42920;45.306;20.448;2023-01-26T10:34:16;102.90;2227.20
57030;DHT22;42920;45.306;20.448;2023-01-26T10:36:44;102.80;2227.20
57030;DHT22;42920;45.306;20.448;2023-01-26T10:39:10;102.80;2227.20
57030;DHT22;42920;45.306;20.448;2023-01-26T10:41:36;102.80;2227.20
57030;DHT22;42920;45.306;20.448;2023-01-26T10:44:03;102.80;2227.20
57030;DHT22;42920;45.306;20.448;2023-01-26T10:46:35;102.90;2227.20
57030;DHT22;42920;45.306;20.448;2023-01-26T10:49:09;102.90;2227.20
57030;DHT22;42920;45.306;20.448;2023-01-26T10:51:45;102.90;2227.20
57030;DHT22;42920;45.306;20.448;2023-01-26T10:54:29;102.80;2227.20
57030;DHT22;42920;45.306;20.448;2023-01-26T10:56:58;102.80;2227.20
57030;DHT22;42920;45.306;20.448;2023-01-26T11:01:54;102.80;2227.20
57030;DHT22;42920;45.306;20.448;2023-01-26T11:04:20;102.90;2227.20
57030;DHT22;42920;45.306;20.448;2023-01-26T11:06:46;102.90;2227.20
57030;DHT22;42920;45.306;20.448;2023-01-26T11:14:25;103.30;2227.20
57030;DHT22;42920;45.306;20.448;2023-01-26T11:19:54;103.10;2227.20
57030;DHT22;42920;45.306;20.448;2023-01-26T11:27:50;103.20;2227.20
57030;DHT22;42920;45.306;20.448;2023-01-26T11:30:39;103.30;2227.20
57030;DHT22;42920;45.306;20.448;2023-01-26T11:51:27;128.00;2252.80
57030;DHT22;42920;45.306;20.448;2023-01-26T11:56:55;128.20;2252.80
57030;DHT22;42920;45.306;20.448;2023-01-26T12:04:40;128.20;2252.80
57030;DHT22;42920;45.306;20.448;2023-01-26T12:07:11;128.30;2252.80
57030;DHT22;42920;45.306;20.448;2023-01-26T12:09:43;128.30;2252.80
57030;DHT22;42920;45.306;20.448;2023-01-26T12:12:14;128.20;2252.80
57030;DHT22;42920;45.306;20.448;2023-01-26T12:20:04;128.20;2252.80
57030;DHT22;42920;45.306;20.448;2023-01-26T12:22:34;128.30;2252.80
57030;DHT22;42920;45.306;20.448;2023-01-26T12:27:39;128.30;2252.80
57030;DHT22;42920;45.306;20.448;2023-01-26T12:30:18;128.30;2252.80
57030;DHT22;42920;45.306;20.448;2023-01-26T12:32:46;128.40;2252.80
57030;DHT22;42920;45.306;20.448;2023-01-26T12:35:11;128.40;2252.80
57030;DHT22;42920;45.306;20.448;2023-01-26T12:40:39;128.40;2252.80
57030;DHT22;42920;45.306;20.448;2023-01-26T12:45:39;128.70;2252.80
57030;DHT22;42920;45.306;20.448;2023-01-26T12:50:39;128.90;2252.80
57030;DHT22;42920;45.306;20.448;2023-01-26T12:53:07;128.90;2252.80
57030;DHT22;42920;45.306;20.448;2023-01-26T12:55:38;128.90;2252.80
57030;DHT22;42920;45.306;20.448;2023-01-26T12:58:10;128.90;2252.80
57030;DHT22;42920;45.306;20.448;2023-01-26T13:00:37;128.90;2252.80
57030;DHT22;42920;45.306;20.448;2023-01-26T13:03:20;128.90;2252.80
57030;DHT22;42920;45.306;20.448;2023-01-26T13:10:56;128.70;2252.80
57030;DHT22;42920;45.306;20.448;2023-01-26T13:13:51;128.80;2252.80
57030;DHT22;42920;45.306;20.448;2023-01-26T13:18:52;128.70;2252.80
57030;DHT22;42920;45.306;20.448;2023-01-26T13:21:51;128.80;2252.80
57030;DHT22;42920;45.306;20.448;2023-01-26T13:31:48;128.70;2252.80
57030;DHT22;42920;45.306;20.448;2023-01-26T13:34:14;128.70;2252.80
57030;DHT22;42920;45.306;20.448;2023-01-26T13:36:41;128.60;2252.80
57030;DHT22;42920;45.306;20.448;2023-01-26T13:39:12;128.70;2252.80
57030;DHT22;42920;45.306;20.448;2023-01-26T13:41:45;128.70;2252.80
57030;DHT22;42920;45.306;20.448;2023-01-26T13:44:19;128.70;2252.80
57030;DHT22;42920;45.306;20.448;2023-01-26T13:46:48;128.50;2252.80
57030;DHT22;42920;45.306;20.448;2023-01-26T13:51:59;128.40;2252.80
57030;DHT22;42920;45.306;20.448;2023-01-26T13:54:24;128.40;2252.80
57030;DHT22;42920;45.306;20.448;2023-01-26T13:57:01;128.20;2252.80
57030;DHT22;42920;45.306;20.448;2023-01-26T13:59:26;128.30;2252.80
57030;DHT22;42920;45.306;20.448;2023-01-26T14:01:53;128.40;2252.80
57030;DHT22;42920;45.306;20.448;2023-01-26T14:04:20;128.30;2252.80
57030;DHT22;42920;45.306;20.448;2023-01-26T14:07:00;128.30;2252.80
57030;DHT22;42920;45.306;20.448;2023-01-26T14:09:27;128.40;2252.80
57030;DHT22;42920;45.306;20.448;2023-01-26T14:11:57;128.40;2252.80
57030;DHT22;42920;45.306;20.448;2023-01-26T14:14:27;128.30;2252.80
57030;DHT22;42920;45.306;20.448;2023-01-26T14:16:55;128.00;2252.80
57030;DHT22;42920;45.306;20.448;2023-01-26T14:19:21;103.30;2227.20
57030;DHT22;42920;45.306;20.448;2023-01-26T14:21:53;103.20;2227.20
57030;DHT22;42920;45.306;20.448;2023-01-26T14:24:40;103.30;2227.20
57030;DHT22;42920;45.306;20.448;2023-01-26T14:27:14;103.20;2227.20
57030;DHT22;42920;45.306;20.448;2023-01-26T14:29:46;103.30;2227.20
57030;DHT22;42920;45.306;20.448;2023-01-26T14:32:13;103.30;2227.20
57030;DHT22;42920;45.306;20.448;2023-01-26T14:34:49;103.20;2227.20
57030;DHT22;42920;45.306;20.448;2023-01-26T14:37:16;103.10;2227.20
57030;DHT22;42920;45.306;20.448;2023-01-26T14:39:42;103.20;2227.20
57030;DHT22;42920;45.306;20.448;2023-01-26T14:42:15;103.20;2227.20
57030;DHT22;42920;45.306;20.448;2023-01-26T14:44:41;103.20;2227.20
57030;DHT22;42920;45.306;20.448;2023-01-26T14:47:11;103.20;2227.20
57030;DHT22;42920;45.306;20.448;2023-01-26T14:49:45;103.10;2227.20
57030;DHT22;42920;45.306;20.448;2023-01-26T14:52:20;103.00;2227.20
57030;DHT22;42920;45.306;20.448;2023-01-26T14:54:48;103.00;2227.20
57030;DHT22;42920;45.306;20.448;2023-01-26T14:57:17;102.90;2227.20
57030;DHT22;42920;45.306;20.448;2023-01-26T14:59:45;102.90;2227.20
57030;DHT22;42920;45.306;20.448;2023-01-26T15:07:48;102.70;2227.20
57030;DHT22;42920;45.306;20.448;2023-01-26T15:15:22;102.70;2227.20
57030;DHT22;42920;45.306;20.448;2023-01-26T15:18:00;102.50;2227.20
57030;DHT22;42920;45.306;20.448;2023-01-26T15:22:51;102.60;2227.20
57030;DHT22;42920;45.306;20.448;2023-01-26T15:25:18;102.70;2227.20
57030;DHT22;42920;45.306;20.448;2023-01-26T15:27:54;102.40;2227.20
57030;DHT22;42920;45.306;20.448;2023-01-26T15:30:26;102.50;2227.20
57030;DHT22;42920;45.306;20.448;2023-01-26T15:32:52;102.50;2227.20
57030;DHT22;42920;45.306;20.448;2023-01-26T15:37:44;102.60;2227.20
57030;DHT22;42920;45.306;20.448;2023-01-26T15:40:10;102.50;2227.20
57030;DHT22;42920;45.306;20.448;2023-01-26T15:42:36;102.50;2227.20
57030;DHT22;42920;45.306;20.448;2023-01-26T15:45:01;102.50;2227.20
57030;DHT22;42920;45.306;20.448;2023-01-26T15:47:27;102.50;2227.20
57030;DHT22;42920;45.306;20.448;2023-01-26T15:49:52;102.50;2227.20
57030;DHT22;42920;45.306;20.448;2023-01-26T15:52:19;102.50;2227.20
57030;DHT22;42920;45.306;20.448;2023-01-26T15:54:45;102.60;2227.20
57030;DHT22;42920;45.306;20.448;2023-01-26T15:57:11;102.60;2227.20
57030;DHT22;42920;45.306;20.448;2023-01-26T15:59:37;102.50;2227.20
57030;DHT22;42920;45.306;20.448;2023-01-26T16:02:05;102.50;2227.20
57030;DHT22;42920;45.306;20.448;2023-01-26T16:04:35;102.50;2227.20
57030;DHT22;42920;45.306;20.448;2023-01-26T16:07:00;102.50;2227.20
57030;DHT22;42920;45.306;20.448;2023-01-26T16:09:26;102.50;2227.20
57030;DHT22;42920;45.306;20.448;2023-01-26T16:11:51;102.50;2227.20
57030;DHT22;42920;45.306;20.448;2023-01-26T16:14:17;102.50;2227.20
57030;DHT22;42920;45.306;20.448;2023-01-26T16:16:43;102.40;2227.20
57030;DHT22;42920;45.306;20.448;2023-01-26T16:19:09;102.50;2227.20
57030;DHT22;42920;45.306;20.448;2023-01-26T16:21:35;102.50;2227.20
57030;DHT22;42920;45.306;20.448;2023-01-26T16:24:02;102.50;2227.20
57030;DHT22;42920;45.306;20.448;2023-01-26T16:26:28;102.50;2227.20
57030;DHT22;42920;45.306;20.448;2023-01-26T16:28:53;102.60;2227.20
57030;DHT22;42920;45.306;20.448;2023-01-26T16:31:20;102.50;2227.20
57030;DHT22;42920;45.306;20.448;2023-01-26T16:33:46;102.60;2227.20
57030;DHT22;42920;45.306;20.448;2023-01-26T16:36:13;102.50;2227.20
57030;DHT22;42920;45.306;20.448;2023-01-26T16:38:39;102.50;2227.20